sensor_id;sensor_type;location;lat;lon;timestamp;P1;durP1;ratioP1;P2;durP2;ratioP2
53034;SDS011;38923;53.236;6.506;2022-07-29T00:01:21;3.17;;;1.35;;
53034;SDS011;38923;53.236;6.506;2022-07-29T00:03:47;3.70;;;1.40;;
53034;SDS011;38923;53.236;6.506;2022-07-29T00:06:13;3.00;;;1.15;;
53034;SDS011;38923;53.236;6.506;2022-07-29T00:08:39;4.60;;;1.50;;
53034;SDS011;38923;53.236;6.506;2022-07-29T00:11:05;6.85;;;1.73;;
53034;SDS011;38923;53.236;6.506;2022-07-29T00:13:31;4.07;;;1.40;;
53034;SDS011;38923;53.236;6.506;2022-07-29T00:15:56;3.92;;;1.33;;
53034;SDS011;38923;53.236;6.506;2022-07-29T00:18:22;3.38;;;1.40;;
53034;SDS011;38923;53.236;6.506;2022-07-29T00:20:48;5.85;;;1.30;;
53034;SDS011;38923;53.236;6.506;2022-07-29T00:23:13;4.47;;;1.50;;
53034;SDS011;38923;53.236;6.506;2022-07-29T00:25:39;5.85;;;1.60;;
53034;SDS011;38923;53.236;6.506;2022-07-29T00:28:05;5.78;;;1.98;;
53034;SDS011;38923;53.236;6.506;2022-07-29T00:30:30;4.82;;;1.45;;
53034;SDS011;38923;53.236;6.506;2022-07-29T00:32:56;3.58;;;1.52;;
53034;SDS011;38923;53.236;6.506;2022-07-29T00:35:22;2.75;;;1.27;;
53034;SDS011;38923;53.236;6.506;2022-07-29T00:38:06;3.95;;;1.35;;
53034;SDS011;38923;53.236;6.506;2022-07-29T00:40:32;4.82;;;1.30;;
53034;SDS011;38923;53.236;6.506;2022-07-29T00:42:57;4.47;;;1.55;;
53034;SDS011;38923;53.236;6.506;2022-07-29T00:45:23;3.33;;;1.70;;
53034;SDS011;38923;53.236;6.506;2022-07-29T00:47:49;4.22;;;1.83;;
53034;SDS011;38923;53.236;6.506;2022-07-29T00:50:15;3.22;;;1.58;;
53034;SDS011;38923;53.236;6.506;2022-07-29T00:52:41;9.18;;;1.88;;
53034;SDS011;38923;53.236;6.506;2022-07-29T00:55:09;3.55;;;1.65;;
53034;SDS011;38923;53.236;6.506;2022-07-29T00:57:37;5.82;;;1.77;;
53034;SDS011;38923;53.236;6.506;2022-07-29T01:00:04;4.90;;;1.48;;
53034;SDS011;38923;53.236;6.506;2022-07-29T01:02:32;2.75;;;1.48;;
53034;SDS011;38923;53.236;6.506;2022-07-29T01:04:58;7.90;;;1.70;;
53034;SDS011;38923;53.236;6.506;2022-07-29T01:07:25;3.20;;;1.70;;
53034;SDS011;38923;53.236;6.506;2022-07-29T01:09:52;4.65;;;1.98;;
53034;SDS011;38923;53.236;6.506;2022-07-29T01:12:24;4.13;;;1.73;;
53034;SDS011;38923;53.236;6.506;2022-07-29T01:14:52;7.18;;;1.77;;
53034;SDS011;38923;53.236;6.506;2022-07-29T01:19:48;6.10;;;1.90;;
53034;SDS011;38923;53.236;6.506;2022-07-29T01:30:41;2.67;;;1.60;;
53034;SDS011;38923;53.236;6.506;2022-07-29T01:33:10;3.50;;;1.70;;
53034;SDS011;38923;53.236;6.506;2022-07-29T01:36:01;5.85;;;1.63;;
53034;SDS011;38923;53.236;6.506;2022-07-29T01:38:35;4.78;;;1.60;;
53034;SDS011;38923;53.236;6.506;2022-07-29T01:41:12;3.60;;;1.52;;
53034;SDS011;38923;53.236;6.506;2022-07-29T01:43:43;4.28;;;1.60;;
53034;SDS011;38923;53.236;6.506;2022-07-29T01:48:45;4.45;;;1.83;;
53034;SDS011;38923;53.236;6.506;2022-07-29T01:54:16;5.05;;;1.88;;
53034;SDS011;38923;53.236;6.506;2022-07-29T01:57:00;4.10;;;1.40;;
53034;SDS011;38923;53.236;6.506;2022-07-29T01:59:28;4.45;;;1.58;;
53034;SDS011;38923;53.236;6.506;2022-07-29T02:01:56;5.72;;;1.63;;
53034;SDS011;38923;53.236;6.506;2022-07-29T02:04:23;4.10;;;1.80;;
53034;SDS011;38923;53.236;6.506;2022-07-29T02:06:51;8.75;;;1.90;;
53034;SDS011;38923;53.236;6.506;2022-07-29T02:09:19;7.15;;;1.80;;
53034;SDS011;38923;53.236;6.506;2022-07-29T02:11:48;6.90;;;1.90;;
53034;SDS011;38923;53.236;6.506;2022-07-29T02:14:21;4.20;;;1.80;;
53034;SDS011;38923;53.236;6.506;2022-07-29T02:16:48;4.68;;;1.83;;
53034;SDS011;38923;53.236;6.506;2022-07-29T02:19:18;2.90;;;1.30;;
53034;SDS011;38923;53.236;6.506;2022-07-29T02:21:47;4.68;;;1.80;;
53034;SDS011;38923;53.236;6.506;2022-07-29T02:24:14;4.90;;;2.00;;
53034;SDS011;38923;53.236;6.506;2022-07-29T02:26:42;6.45;;;1.98;;
53034;SDS011;38923;53.236;6.506;2022-07-29T02:29:09;6.72;;;2.08;;
53034;SDS011;38923;53.236;6.506;2022-07-29T02:31:36;5.45;;;1.73;;
53034;SDS011;38923;53.236;6.506;2022-07-29T02:34:05;5.45;;;1.75;;
53034;SDS011;38923;53.236;6.506;2022-07-29T02:36:33;7.95;;;1.98;;
53034;SDS011;38923;53.236;6.506;2022-07-29T02:39:00;4.47;;;2.17;;
53034;SDS011;38923;53.236;6.506;2022-07-29T02:41:29;3.17;;;2.10;;
53034;SDS011;38923;53.236;6.506;2022-07-29T02:44:05;3.88;;;1.80;;
53034;SDS011;38923;53.236;6.506;2022-07-29T02:46:37;3.63;;;1.75;;
53034;SDS011;38923;53.236;6.506;2022-07-29T02:49:15;4.85;;;1.73;;
53034;SDS011;38923;53.236;6.506;2022-07-29T02:51:46;6.25;;;1.95;;
53034;SDS011;38923;53.236;6.506;2022-07-29T02:57:22;5.45;;;1.77;;
53034;SDS011;38923;53.236;6.506;2022-07-29T03:00:01;4.97;;;1.85;;
53034;SDS011;38923;53.236;6.506;2022-07-29T03:05:00;3.83;;;1.55;;
53034;SDS011;38923;53.236;6.506;2022-07-29T03:07:28;5.10;;;1.70;;
53034;SDS011;38923;53.236;6.506;2022-07-29T03:09:54;5.43;;;1.60;;
53034;SDS011;38923;53.236;6.506;2022-07-29T03:12:20;5.30;;;1.55;;
53034;SDS011;38923;53.236;6.506;2022-07-29T03:14:47;5.10;;;1.80;;
53034;SDS011;38923;53.236;6.506;2022-07-29T03:17:13;6.05;;;1.48;;
53034;SDS011;38923;53.236;6.506;2022-07-29T03:19:40;4.63;;;1.35;;
53034;SDS011;38923;53.236;6.506;2022-07-29T03:22:06;6.40;;;1.77;;
53034;SDS011;38923;53.236;6.506;2022-07-29T03:24:32;2.75;;;1.33;;
53034;SDS011;38923;53.236;6.506;2022-07-29T03:27:00;3.53;;;1.73;;
53034;SDS011;38923;53.236;6.506;2022-07-29T03:29:27;4.95;;;1.60;;
53034;SDS011;38923;53.236;6.506;2022-07-29T03:31:53;4.88;;;1.20;;
53034;SDS011;38923;53.236;6.506;2022-07-29T03:34:19;4.40;;;1.80;;
53034;SDS011;38923;53.236;6.506;2022-07-29T03:36:45;5.28;;;1.80;;
53034;SDS011;38923;53.236;6.506;2022-07-29T03:39:11;6.18;;;1.60;;
53034;SDS011;38923;53.236;6.506;2022-07-29T03:41:42;6.95;;;1.67;;
53034;SDS011;38923;53.236;6.506;2022-07-29T03:44:10;7.72;;;1.88;;
53034;SDS011;38923;53.236;6.506;2022-07-29T03:46:37;3.63;;;1.80;;
53034;SDS011;38923;53.236;6.506;2022-07-29T03:49:04;5.78;;;1.60;;
53034;SDS011;38923;53.236;6.506;2022-07-29T03:51:33;5.38;;;1.50;;
53034;SDS011;38923;53.236;6.506;2022-07-29T03:54:03;6.15;;;1.65;;
53034;SDS011;38923;53.236;6.506;2022-07-29T03:56:30;5.15;;;1.48;;
53034;SDS011;38923;53.236;6.506;2022-07-29T03:58:59;7.00;;;1.70;;
53034;SDS011;38923;53.236;6.506;2022-07-29T04:01:27;2.58;;;1.58;;
53034;SDS011;38923;53.236;6.506;2022-07-29T04:03:54;4.70;;;1.52;;
53034;SDS011;38923;53.236;6.506;2022-07-29T04:06:20;10.10;;;1.65;;
53034;SDS011;38923;53.236;6.506;2022-07-29T04:08:46;4.07;;;1.77;;
53034;SDS011;38923;53.236;6.506;2022-07-29T04:11:11;5.95;;;1.67;;
53034;SDS011;38923;53.236;6.506;2022-07-29T04:13:37;6.20;;;1.80;;
53034;SDS011;38923;53.236;6.506;2022-07-29T04:16:03;5.05;;;1.50;;
53034;SDS011;38923;53.236;6.506;2022-07-29T04:18:30;6.40;;;1.52;;
53034;SDS011;38923;53.236;6.506;2022-07-29T04:20:56;6.93;;;1.50;;
53034;SDS011;38923;53.236;6.506;2022-07-29T04:23:25;4.55;;;1.50;;
53034;SDS011;38923;53.236;6.506;2022-07-29T04:25:51;4.32;;;1.65;;
53034;SDS011;38923;53.236;6.506;2022-07-29T04:28:17;6.13;;;1.95;;
53034;SDS011;38923;53.236;6.506;2022-07-29T04:30:43;9.40;;;1.90;;
53034;SDS011;38923;53.236;6.506;2022-07-29T04:33:08;9.18;;;1.75;;
53034;SDS011;38923;53.236;6.506;2022-07-29T04:35:36;5.72;;;1.45;;
53034;SDS011;38923;53.236;6.506;2022-07-29T04:38:03;4.70;;;1.48;;
53034;SDS011;38923;53.236;6.506;2022-07-29T04:40:29;4.63;;;1.85;;
53034;SDS011;38923;53.236;6.506;2022-07-29T04:42:57;3.35;;;1.45;;
53034;SDS011;38923;53.236;6.506;2022-07-29T04:45:24;6.57;;;1.60;;
53034;SDS011;38923;53.236;6.506;2022-07-29T04:47:49;3.67;;;1.17;;
53034;SDS011;38923;53.236;6.506;2022-07-29T04:50:15;5.72;;;1.60;;
53034;SDS011;38923;53.236;6.506;2022-07-29T04:52:41;4.38;;;1.27;;
53034;SDS011;38923;53.236;6.506;2022-07-29T04:55:07;3.75;;;1.42;;
53034;SDS011;38923;53.236;6.506;2022-07-29T04:57:33;4.22;;;1.60;;
53034;SDS011;38923;53.236;6.506;2022-07-29T04:59:59;4.45;;;1.50;;
53034;SDS011;38923;53.236;6.506;2022-07-29T05:02:25;3.60;;;1.52;;
53034;SDS011;38923;53.236;6.506;2022-07-29T05:04:50;4.25;;;1.30;;
53034;SDS011;38923;53.236;6.506;2022-07-29T05:07:16;2.83;;;1.63;;
53034;SDS011;38923;53.236;6.506;2022-07-29T05:09:42;5.30;;;1.80;;
53034;SDS011;38923;53.236;6.506;2022-07-29T05:12:08;4.13;;;1.30;;
53034;SDS011;38923;53.236;6.506;2022-07-29T05:14:34;5.10;;;1.60;;
53034;SDS011;38923;53.236;6.506;2022-07-29T05:17:00;4.32;;;1.92;;
53034;SDS011;38923;53.236;6.506;2022-07-29T05:19:26;5.47;;;1.95;;
53034;SDS011;38923;53.236;6.506;2022-07-29T05:21:51;7.78;;;1.70;;
53034;SDS011;38923;53.236;6.506;2022-07-29T05:24:17;5.07;;;2.28;;
53034;SDS011;38923;53.236;6.506;2022-07-29T05:26:43;4.15;;;1.45;;
53034;SDS011;38923;53.236;6.506;2022-07-29T05:29:09;7.22;;;1.70;;
53034;SDS011;38923;53.236;6.506;2022-07-29T05:31:34;4.15;;;1.52;;
53034;SDS011;38923;53.236;6.506;2022-07-29T05:34:00;4.85;;;1.60;;
53034;SDS011;38923;53.236;6.506;2022-07-29T05:36:26;4.22;;;1.52;;
53034;SDS011;38923;53.236;6.506;2022-07-29T05:38:51;2.85;;;1.40;;
53034;SDS011;38923;53.236;6.506;2022-07-29T05:41:18;7.50;;;2.15;;
53034;SDS011;38923;53.236;6.506;2022-07-29T05:43:44;3.97;;;1.40;;
53034;SDS011;38923;53.236;6.506;2022-07-29T05:46:10;6.78;;;1.42;;
53034;SDS011;38923;53.236;6.506;2022-07-29T05:48:36;4.88;;;2.05;;
53034;SDS011;38923;53.236;6.506;2022-07-29T05:51:01;2.90;;;1.67;;
53034;SDS011;38923;53.236;6.506;2022-07-29T05:53:27;5.03;;;1.60;;
53034;SDS011;38923;53.236;6.506;2022-07-29T05:55:53;4.60;;;1.33;;
53034;SDS011;38923;53.236;6.506;2022-07-29T05:58:19;5.60;;;1.65;;
53034;SDS011;38923;53.236;6.506;2022-07-29T06:00:45;4.38;;;1.90;;
53034;SDS011;38923;53.236;6.506;2022-07-29T06:03:11;4.28;;;1.42;;
53034;SDS011;38923;53.236;6.506;2022-07-29T06:05:37;5.25;;;1.80;;
53034;SDS011;38923;53.236;6.506;2022-07-29T06:08:03;3.70;;;1.50;;
53034;SDS011;38923;53.236;6.506;2022-07-29T06:10:32;5.18;;;1.67;;
53034;SDS011;38923;53.236;6.506;2022-07-29T06:12:59;5.53;;;1.80;;
53034;SDS011;38923;53.236;6.506;2022-07-29T06:15:25;5.85;;;1.80;;
53034;SDS011;38923;53.236;6.506;2022-07-29T06:17:51;5.30;;;2.15;;
53034;SDS011;38923;53.236;6.506;2022-07-29T06:20:17;2.67;;;1.52;;
53034;SDS011;38923;53.236;6.506;2022-07-29T06:22:43;3.88;;;1.45;;
53034;SDS011;38923;53.236;6.506;2022-07-29T06:25:09;4.53;;;1.63;;
53034;SDS011;38923;53.236;6.506;2022-07-29T06:27:35;6.93;;;1.67;;
53034;SDS011;38923;53.236;6.506;2022-07-29T06:30:00;6.68;;;1.50;;
53034;SDS011;38923;53.236;6.506;2022-07-29T06:32:26;4.90;;;1.60;;
53034;SDS011;38923;53.236;6.506;2022-07-29T06:34:52;6.13;;;1.48;;
53034;SDS011;38923;53.236;6.506;2022-07-29T06:37:18;7.10;;;1.70;;
53034;SDS011;38923;53.236;6.506;2022-07-29T06:39:44;4.40;;;1.45;;
53034;SDS011;38923;53.236;6.506;2022-07-29T06:42:09;7.07;;;1.80;;
53034;SDS011;38923;53.236;6.506;2022-07-29T06:44:35;8.65;;;1.55;;
53034;SDS011;38923;53.236;6.506;2022-07-29T06:47:01;4.72;;;1.67;;
53034;SDS011;38923;53.236;6.506;2022-07-29T06:49:27;5.25;;;1.73;;
53034;SDS011;38923;53.236;6.506;2022-07-29T06:51:53;3.30;;;1.60;;
53034;SDS011;38923;53.236;6.506;2022-07-29T06:54:20;4.13;;;1.48;;
53034;SDS011;38923;53.236;6.506;2022-07-29T06:56:46;5.03;;;1.70;;
53034;SDS011;38923;53.236;6.506;2022-07-29T06:59:12;4.00;;;1.33;;
53034;SDS011;38923;53.236;6.506;2022-07-29T07:01:39;5.00;;;1.60;;
53034;SDS011;38923;53.236;6.506;2022-07-29T07:04:07;4.93;;;1.60;;
53034;SDS011;38923;53.236;6.506;2022-07-29T07:06:34;5.05;;;1.75;;
53034;SDS011;38923;53.236;6.506;2022-07-29T07:08:59;4.65;;;1.85;;
53034;SDS011;38923;53.236;6.506;2022-07-29T07:11:25;3.45;;;1.40;;
53034;SDS011;38923;53.236;6.506;2022-07-29T07:13:52;7.20;;;1.92;;
53034;SDS011;38923;53.236;6.506;2022-07-29T07:16:18;5.20;;;1.92;;
53034;SDS011;38923;53.236;6.506;2022-07-29T07:18:44;5.70;;;1.80;;
53034;SDS011;38923;53.236;6.506;2022-07-29T07:21:10;6.38;;;1.63;;
53034;SDS011;38923;53.236;6.506;2022-07-29T07:23:36;3.70;;;1.75;;
53034;SDS011;38923;53.236;6.506;2022-07-29T07:26:02;5.45;;;1.40;;
53034;SDS011;38923;53.236;6.506;2022-07-29T07:28:30;6.78;;;1.70;;
53034;SDS011;38923;53.236;6.506;2022-07-29T07:30:55;3.90;;;1.67;;
53034;SDS011;38923;53.236;6.506;2022-07-29T07:33:21;5.68;;;1.75;;
53034;SDS011;38923;53.236;6.506;2022-07-29T07:35:47;4.53;;;1.77;;
53034;SDS011;38923;53.236;6.506;2022-07-29T07:38:12;7.57;;;1.83;;
53034;SDS011;38923;53.236;6.506;2022-07-29T07:40:38;4.18;;;1.60;;
53034;SDS011;38923;53.236;6.506;2022-07-29T07:43:04;4.38;;;1.70;;
53034;SDS011;38923;53.236;6.506;2022-07-29T07:45:30;4.18;;;1.63;;
53034;SDS011;38923;53.236;6.506;2022-07-29T07:47:57;4.07;;;1.60;;
53034;SDS011;38923;53.236;6.506;2022-07-29T07:50:23;6.38;;;1.67;;
53034;SDS011;38923;53.236;6.506;2022-07-29T07:52:50;3.00;;;1.58;;
53034;SDS011;38923;53.236;6.506;2022-07-29T07:55:17;6.80;;;2.13;;
53034;SDS011;38923;53.236;6.506;2022-07-29T07:57:44;6.97;;;1.65;;
53034;SDS011;38923;53.236;6.506;2022-07-29T08:00:11;3.97;;;1.75;;
53034;SDS011;38923;53.236;6.506;2022-07-29T08:02:38;4.63;;;1.75;;
53034;SDS011;38923;53.236;6.506;2022-07-29T08:05:05;6.85;;;2.20;;
53034;SDS011;38923;53.236;6.506;2022-07-29T08:07:32;5.55;;;2.00;;
53034;SDS011;38923;53.236;6.506;2022-07-29T08:09:58;4.30;;;1.85;;
53034;SDS011;38923;53.236;6.506;2022-07-29T08:12:24;5.55;;;1.70;;
53034;SDS011;38923;53.236;6.506;2022-07-29T08:14:50;5.15;;;1.75;;
53034;SDS011;38923;53.236;6.506;2022-07-29T08:17:15;8.20;;;1.95;;
53034;SDS011;38923;53.236;6.506;2022-07-29T08:19:41;3.65;;;1.80;;
53034;SDS011;38923;53.236;6.506;2022-07-29T08:22:07;5.35;;;1.90;;
53034;SDS011;38923;53.236;6.506;2022-07-29T08:24:32;5.90;;;2.05;;
53034;SDS011;38923;53.236;6.506;2022-07-29T08:27:17;5.20;;;1.67;;
53034;SDS011;38923;53.236;6.506;2022-07-29T08:29:43;6.55;;;2.10;;
53034;SDS011;38923;53.236;6.506;2022-07-29T08:32:08;6.60;;;1.95;;
53034;SDS011;38923;53.236;6.506;2022-07-29T08:34:34;6.22;;;2.25;;
53034;SDS011;38923;53.236;6.506;2022-07-29T08:37:00;7.47;;;2.00;;
53034;SDS011;38923;53.236;6.506;2022-07-29T08:39:26;5.72;;;2.17;;
53034;SDS011;38923;53.236;6.506;2022-07-29T08:41:51;10.52;;;1.95;;
53034;SDS011;38923;53.236;6.506;2022-07-29T08:44:18;8.52;;;2.13;;
53034;SDS011;38923;53.236;6.506;2022-07-29T08:46:44;4.95;;;1.90;;
53034;SDS011;38923;53.236;6.506;2022-07-29T08:49:10;6.55;;;1.92;;
53034;SDS011;38923;53.236;6.506;2022-07-29T08:51:37;4.10;;;1.92;;
53034;SDS011;38923;53.236;6.506;2022-07-29T08:54:06;5.32;;;2.30;;
53034;SDS011;38923;53.236;6.506;2022-07-29T08:56:33;7.50;;;2.35;;
53034;SDS011;38923;53.236;6.506;2022-07-29T08:58:59;8.68;;;2.00;;
53034;SDS011;38923;53.236;6.506;2022-07-29T09:01:29;9.50;;;2.00;;
53034;SDS011;38923;53.236;6.506;2022-07-29T09:03:57;6.50;;;2.08;;
53034;SDS011;38923;53.236;6.506;2022-07-29T09:06:26;4.13;;;1.73;;
53034;SDS011;38923;53.236;6.506;2022-07-29T09:08:58;5.73;;;2.30;;
53034;SDS011;38923;53.236;6.506;2022-07-29T09:11:25;7.38;;;2.15;;
53034;SDS011;38923;53.236;6.506;2022-07-29T09:13:51;6.70;;;1.88;;
53034;SDS011;38923;53.236;6.506;2022-07-29T09:16:17;6.72;;;2.05;;
53034;SDS011;38923;53.236;6.506;2022-07-29T09:18:44;5.53;;;1.83;;
53034;SDS011;38923;53.236;6.506;2022-07-29T09:21:11;5.63;;;1.60;;
53034;SDS011;38923;53.236;6.506;2022-07-29T09:24:07;7.35;;;1.80;;
53034;SDS011;38923;53.236;6.506;2022-07-29T09:26:35;4.10;;;1.90;;
53034;SDS011;38923;53.236;6.506;2022-07-29T09:29:19;5.80;;;2.17;;
53034;SDS011;38923;53.236;6.506;2022-07-29T09:31:47;4.45;;;1.85;;
53034;SDS011;38923;53.236;6.506;2022-07-29T09:34:15;5.05;;;1.90;;
53034;SDS011;38923;53.236;6.506;2022-07-29T09:36:47;4.88;;;1.70;;
53034;SDS011;38923;53.236;6.506;2022-07-29T09:39:15;8.68;;;2.13;;
53034;SDS011;38923;53.236;6.506;2022-07-29T09:41:52;6.65;;;2.10;;
53034;SDS011;38923;53.236;6.506;2022-07-29T09:44:19;9.80;;;2.03;;
53034;SDS011;38923;53.236;6.506;2022-07-29T09:46:58;5.53;;;2.03;;
53034;SDS011;38923;53.236;6.506;2022-07-29T09:49:32;4.55;;;2.08;;
53034;SDS011;38923;53.236;6.506;2022-07-29T09:52:03;6.13;;;1.85;;
53034;SDS011;38923;53.236;6.506;2022-07-29T09:54:33;5.38;;;1.98;;
53034;SDS011;38923;53.236;6.506;2022-07-29T09:57:03;6.15;;;2.88;;
53034;SDS011;38923;53.236;6.506;2022-07-29T09:59:30;5.55;;;2.20;;
53034;SDS011;38923;53.236;6.506;2022-07-29T10:01:56;5.22;;;2.10;;
53034;SDS011;38923;53.236;6.506;2022-07-29T10:04:22;7.03;;;2.08;;
53034;SDS011;38923;53.236;6.506;2022-07-29T10:06:58;6.40;;;2.30;;
53034;SDS011;38923;53.236;6.506;2022-07-29T10:09:25;4.32;;;1.75;;
53034;SDS011;38923;53.236;6.506;2022-07-29T10:14:31;5.18;;;2.20;;
53034;SDS011;38923;53.236;6.506;2022-07-29T10:17:00;7.70;;;2.17;;
53034;SDS011;38923;53.236;6.506;2022-07-29T10:19:28;8.43;;;2.78;;
53034;SDS011;38923;53.236;6.506;2022-07-29T10:21:56;4.45;;;2.40;;
53034;SDS011;38923;53.236;6.506;2022-07-29T10:24:29;5.53;;;2.30;;
53034;SDS011;38923;53.236;6.506;2022-07-29T10:26:56;6.15;;;2.53;;
53034;SDS011;38923;53.236;6.506;2022-07-29T10:29:24;7.85;;;2.60;;
53034;SDS011;38923;53.236;6.506;2022-07-29T10:32:02;7.57;;;2.53;;
53034;SDS011;38923;53.236;6.506;2022-07-29T10:34:57;6.82;;;2.40;;
53034;SDS011;38923;53.236;6.506;2022-07-29T10:43:31;10.73;;;3.10;;
53034;SDS011;38923;53.236;6.506;2022-07-29T10:46:01;5.38;;;2.30;;
53034;SDS011;38923;53.236;6.506;2022-07-29T10:48:28;7.40;;;2.72;;
53034;SDS011;38923;53.236;6.506;2022-07-29T10:50:58;8.48;;;2.60;;
53034;SDS011;38923;53.236;6.506;2022-07-29T10:53:45;5.80;;;2.78;;
53034;SDS011;38923;53.236;6.506;2022-07-29T10:56:25;9.38;;;2.95;;
53034;SDS011;38923;53.236;6.506;2022-07-29T11:01:44;7.68;;;3.38;;
53034;SDS011;38923;53.236;6.506;2022-07-29T11:04:14;7.10;;;3.08;;
53034;SDS011;38923;53.236;6.506;2022-07-29T11:09:25;7.70;;;3.15;;
53034;SDS011;38923;53.236;6.506;2022-07-29T11:11:51;5.22;;;2.75;;
53034;SDS011;38923;53.236;6.506;2022-07-29T11:14:18;7.45;;;2.83;;
53034;SDS011;38923;53.236;6.506;2022-07-29T11:17:04;9.60;;;2.78;;
53034;SDS011;38923;53.236;6.506;2022-07-29T11:19:30;8.07;;;3.00;;
53034;SDS011;38923;53.236;6.506;2022-07-29T11:21:56;6.75;;;2.80;;
53034;SDS011;38923;53.236;6.506;2022-07-29T11:24:24;4.68;;;2.67;;
53034;SDS011;38923;53.236;6.506;2022-07-29T11:29:47;6.07;;;2.75;;
53034;SDS011;38923;53.236;6.506;2022-07-29T11:32:16;7.78;;;3.10;;
53034;SDS011;38923;53.236;6.506;2022-07-29T11:34:45;10.75;;;3.40;;
53034;SDS011;38923;53.236;6.506;2022-07-29T11:37:14;7.65;;;3.30;;
53034;SDS011;38923;53.236;6.506;2022-07-29T11:39:45;13.82;;;3.85;;
53034;SDS011;38923;53.236;6.506;2022-07-29T11:44:56;7.93;;;3.47;;
53034;SDS011;38923;53.236;6.506;2022-07-29T11:47:23;6.85;;;3.45;;
53034;SDS011;38923;53.236;6.506;2022-07-29T11:49:51;8.70;;;3.67;;
53034;SDS011;38923;53.236;6.506;2022-07-29T11:52:17;4.28;;;2.67;;
53034;SDS011;38923;53.236;6.506;2022-07-29T11:54:43;8.88;;;3.03;;
53034;SDS011;38923;53.236;6.506;2022-07-29T11:57:12;6.28;;;3.10;;
53034;SDS011;38923;53.236;6.506;2022-07-29T11:59:39;6.07;;;2.70;;
53034;SDS011;38923;53.236;6.506;2022-07-29T12:02:09;7.30;;;3.20;;
53034;SDS011;38923;53.236;6.506;2022-07-29T12:04:51;8.90;;;3.22;;
53034;SDS011;38923;53.236;6.506;2022-07-29T12:07:29;7.78;;;2.97;;
53034;SDS011;38923;53.236;6.506;2022-07-29T12:09:56;8.27;;;3.20;;
53034;SDS011;38923;53.236;6.506;2022-07-29T12:12:22;10.60;;;3.70;;
53034;SDS011;38923;53.236;6.506;2022-07-29T12:14:48;9.02;;;3.25;;
53034;SDS011;38923;53.236;6.506;2022-07-29T12:17:30;8.60;;;3.10;;
53034;SDS011;38923;53.236;6.506;2022-07-29T12:20:01;7.90;;;2.85;;
53034;SDS011;38923;53.236;6.506;2022-07-29T12:25:09;5.57;;;2.40;;
53034;SDS011;38923;53.236;6.506;2022-07-29T12:27:36;10.25;;;2.85;;
53034;SDS011;38923;53.236;6.506;2022-07-29T12:30:07;13.07;;;2.70;;
53034;SDS011;38923;53.236;6.506;2022-07-29T12:32:36;6.50;;;2.35;;
53034;SDS011;38923;53.236;6.506;2022-07-29T12:35:07;5.40;;;2.30;;
53034;SDS011;38923;53.236;6.506;2022-07-29T12:37:35;10.85;;;2.42;;
53034;SDS011;38923;53.236;6.506;2022-07-29T12:40:03;6.75;;;2.08;;
53034;SDS011;38923;53.236;6.506;2022-07-29T12:42:30;6.95;;;2.25;;
53034;SDS011;38923;53.236;6.506;2022-07-29T12:44:56;6.82;;;2.58;;
53034;SDS011;38923;53.236;6.506;2022-07-29T12:47:22;5.40;;;2.08;;
53034;SDS011;38923;53.236;6.506;2022-07-29T12:49:48;6.43;;;2.22;;
53034;SDS011;38923;53.236;6.506;2022-07-29T12:52:31;4.93;;;2.10;;
53034;SDS011;38923;53.236;6.506;2022-07-29T12:57:24;7.70;;;1.65;;
53034;SDS011;38923;53.236;6.506;2022-07-29T13:00:00;8.25;;;2.33;;
53034;SDS011;38923;53.236;6.506;2022-07-29T13:02:31;7.28;;;2.78;;
53034;SDS011;38923;53.236;6.506;2022-07-29T13:04:58;8.23;;;2.08;;
53034;SDS011;38923;53.236;6.506;2022-07-29T13:07:25;8.80;;;2.03;;
53034;SDS011;38923;53.236;6.506;2022-07-29T13:09:53;6.35;;;1.90;;
53034;SDS011;38923;53.236;6.506;2022-07-29T13:12:19;7.85;;;1.83;;
53034;SDS011;38923;53.236;6.506;2022-07-29T13:14:49;7.15;;;1.90;;
53034;SDS011;38923;53.236;6.506;2022-07-29T13:17:17;4.47;;;1.70;;
53034;SDS011;38923;53.236;6.506;2022-07-29T13:19:53;4.03;;;1.60;;
53034;SDS011;38923;53.236;6.506;2022-07-29T13:22:34;6.57;;;2.22;;
53034;SDS011;38923;53.236;6.506;2022-07-29T13:25:01;8.30;;;2.10;;
53034;SDS011;38923;53.236;6.506;2022-07-29T13:27:29;8.13;;;2.00;;
53034;SDS011;38923;53.236;6.506;2022-07-29T13:29:58;4.15;;;1.70;;
53034;SDS011;38923;53.236;6.506;2022-07-29T13:32:25;6.00;;;1.85;;
53034;SDS011;38923;53.236;6.506;2022-07-29T13:34:53;8.98;;;2.15;;
53034;SDS011;38923;53.236;6.506;2022-07-29T13:37:20;10.07;;;2.05;;
53034;SDS011;38923;53.236;6.506;2022-07-29T13:39:46;4.43;;;1.90;;
53034;SDS011;38923;53.236;6.506;2022-07-29T13:42:12;6.00;;;1.70;;
53034;SDS011;38923;53.236;6.506;2022-07-29T13:44:39;8.00;;;2.22;;
53034;SDS011;38923;53.236;6.506;2022-07-29T13:47:05;7.85;;;2.55;;
53034;SDS011;38923;53.236;6.506;2022-07-29T13:49:32;7.82;;;1.98;;
53034;SDS011;38923;53.236;6.506;2022-07-29T13:51:57;5.53;;;1.58;;
53034;SDS011;38923;53.236;6.506;2022-07-29T13:54:23;5.68;;;1.60;;
53034;SDS011;38923;53.236;6.506;2022-07-29T13:56:49;7.53;;;1.75;;
53034;SDS011;38923;53.236;6.506;2022-07-29T13:59:15;5.10;;;1.88;;
53034;SDS011;38923;53.236;6.506;2022-07-29T14:01:41;6.07;;;1.65;;
53034;SDS011;38923;53.236;6.506;2022-07-29T14:04:07;5.25;;;1.75;;
53034;SDS011;38923;53.236;6.506;2022-07-29T14:06:33;3.63;;;1.60;;
53034;SDS011;38923;53.236;6.506;2022-07-29T14:08:59;6.65;;;2.05;;
53034;SDS011;38923;53.236;6.506;2022-07-29T14:11:25;4.45;;;1.67;;
53034;SDS011;38923;53.236;6.506;2022-07-29T14:13:51;4.60;;;1.88;;
53034;SDS011;38923;53.236;6.506;2022-07-29T14:16:17;4.45;;;1.92;;
53034;SDS011;38923;53.236;6.506;2022-07-29T14:18:42;8.48;;;2.17;;
53034;SDS011;38923;53.236;6.506;2022-07-29T14:21:08;6.15;;;2.08;;
53034;SDS011;38923;53.236;6.506;2022-07-29T14:23:34;9.63;;;2.25;;
53034;SDS011;38923;53.236;6.506;2022-07-29T14:26:01;8.57;;;2.05;;
53034;SDS011;38923;53.236;6.506;2022-07-29T14:28:27;6.50;;;1.77;;
53034;SDS011;38923;53.236;6.506;2022-07-29T14:30:52;8.90;;;2.00;;
53034;SDS011;38923;53.236;6.506;2022-07-29T14:33:18;3.40;;;1.40;;
53034;SDS011;38923;53.236;6.506;2022-07-29T14:35:44;7.25;;;1.92;;
53034;SDS011;38923;53.236;6.506;2022-07-29T14:38:10;7.60;;;1.60;;
53034;SDS011;38923;53.236;6.506;2022-07-29T14:40:36;8.73;;;1.63;;
53034;SDS011;38923;53.236;6.506;2022-07-29T14:43:02;3.25;;;1.48;;
53034;SDS011;38923;53.236;6.506;2022-07-29T14:45:28;6.97;;;1.50;;
53034;SDS011;38923;53.236;6.506;2022-07-29T14:47:53;3.08;;;1.40;;
53034;SDS011;38923;53.236;6.506;2022-07-29T14:50:19;5.85;;;1.40;;
53034;SDS011;38923;53.236;6.506;2022-07-29T14:52:45;6.70;;;1.50;;
53034;SDS011;38923;53.236;6.506;2022-07-29T14:55:11;6.15;;;1.65;;
53034;SDS011;38923;53.236;6.506;2022-07-29T14:57:37;7.00;;;1.60;;
53034;SDS011;38923;53.236;6.506;2022-07-29T15:00:03;3.90;;;1.50;;
53034;SDS011;38923;53.236;6.506;2022-07-29T15:02:29;6.10;;;1.20;;
53034;SDS011;38923;53.236;6.506;2022-07-29T15:04:55;3.45;;;1.35;;
53034;SDS011;38923;53.236;6.506;2022-07-29T15:07:21;8.25;;;1.45;;
53034;SDS011;38923;53.236;6.506;2022-07-29T15:09:47;5.97;;;1.75;;
53034;SDS011;38923;53.236;6.506;2022-07-29T15:12:13;5.07;;;1.70;;
53034;SDS011;38923;53.236;6.506;2022-07-29T15:14:38;4.82;;;1.75;;
53034;SDS011;38923;53.236;6.506;2022-07-29T15:17:04;7.80;;;1.70;;
53034;SDS011;38923;53.236;6.506;2022-07-29T15:19:30;3.72;;;1.45;;
53034;SDS011;38923;53.236;6.506;2022-07-29T15:21:56;7.15;;;1.65;;
53034;SDS011;38923;53.236;6.506;2022-07-29T15:24:21;7.90;;;1.65;;
53034;SDS011;38923;53.236;6.506;2022-07-29T15:26:47;4.97;;;1.83;;
53034;SDS011;38923;53.236;6.506;2022-07-29T15:29:13;4.20;;;1.50;;
53034;SDS011;38923;53.236;6.506;2022-07-29T15:31:39;4.15;;;1.80;;
53034;SDS011;38923;53.236;6.506;2022-07-29T15:34:05;6.30;;;1.80;;
53034;SDS011;38923;53.236;6.506;2022-07-29T15:36:31;6.53;;;2.05;;
53034;SDS011;38923;53.236;6.506;2022-07-29T15:38:57;4.25;;;1.60;;